createdAt,value
2022-10-01T00:03:03.634Z,50.73
2022-10-01T00:08:05.160Z,51.10
2022-10-01T00:13:06.634Z,51.93
2022-10-01T00:18:09.682Z,53.06
2022-10-01T00:23:11.981Z,53.70
2022-10-01T00:28:13.588Z,53.26
2022-10-01T00:33:15.133Z,53.67
2022-10-01T00:38:16.628Z,54.38
2022-10-01T00:43:20.373Z,55.22
2022-10-01T00:48:22.349Z,55.64
2022-10-01T00:53:23.815Z,55.93
2022-10-01T00:58:25.315Z,57.10
2022-10-01T01:03:26.813Z,56.43
2022-10-01T01:08:29.335Z,57.13
2022-10-01T01:13:47.597Z,57.05
2022-10-01T01:18:54.492Z,58.39
2022-10-01T01:24:03.889Z,59.98
2022-10-01T01:29:11.225Z,59.38
2022-10-01T01:34:14.073Z,60.65
2022-10-01T01:39:15.559Z,60.17
2022-10-01T01:44:18.274Z,59.91
2022-10-01T01:49:20.750Z,60.25
2022-10-01T01:54:22.265Z,59.94
2022-10-01T01:59:24.085Z,59.41
2022-10-01T02:04:31.488Z,60.80
2022-10-01T02:09:40.124Z,59.64
2022-10-01T02:14:52.611Z,60.92
2022-10-01T02:19:57.606Z,61.64
2022-10-01T02:24:59.954Z,61.83
2022-10-01T02:30:04.293Z,62.49
2022-10-01T02:35:10.465Z,60.87
2022-10-01T02:40:15.890Z,59.87
2022-10-01T02:45:19.526Z,62.74
2022-10-01T02:50:23.137Z,62.05
2022-10-01T02:55:28.683Z,61.87
2022-10-01T03:00:30.220Z,60.97
2022-10-01T03:05:31.693Z,61.09
2022-10-01T03:10:33.672Z,60.93
2022-10-01T03:15:35.210Z,62.88
2022-10-01T03:20:36.759Z,63.58
2022-10-01T03:25:39.027Z,62.77
2022-10-01T03:30:40.505Z,63.11
2022-10-01T03:35:41.978Z,61.41
2022-10-01T03:40:43.869Z,62.92
2022-10-01T03:45:45.454Z,62.38
2022-10-01T03:50:57.314Z,61.86
2022-10-01T03:55:59.338Z,62.34
2022-10-01T04:01:00.851Z,63.25
2022-10-01T04:06:02.342Z,63.27
2022-10-01T04:11:04.167Z,63.65
2022-10-01T04:16:06.857Z,64.30
2022-10-01T04:21:08.394Z,65.84
2022-10-01T04:26:09.899Z,65.70
2022-10-01T04:31:26.481Z,65.64
2022-10-01T04:36:28.051Z,66.96
2022-10-01T04:41:30.635Z,67.10
2022-10-01T04:46:32.547Z,66.73
2022-10-01T04:51:34.235Z,66.48
2022-10-01T04:56:35.960Z,66.90
2022-10-01T05:01:37.970Z,67.68
2022-10-01T05:06:41.266Z,68.31
2022-10-01T05:11:42.732Z,68.62
2022-10-01T05:16:44.247Z,69.05
2022-10-01T05:21:46.168Z,69.55
2022-10-01T05:26:47.647Z,70.06
2022-10-01T05:31:49.379Z,69.44
2022-10-01T05:36:50.913Z,69.18
2022-10-01T05:41:55.397Z,67.59
2022-10-01T05:46:57.928Z,67.30
2022-10-01T05:52:01.023Z,67.39
2022-10-01T05:57:02.595Z,67.24
2022-10-01T06:02:04.311Z,66.75
2022-10-01T06:07:05.940Z,67.94
2022-10-01T06:12:08.560Z,67.39
2022-10-01T06:17:10.025Z,66.88
2022-10-01T06:22:11.491Z,66.38
2022-10-01T06:27:12.961Z,66.84
2022-10-01T06:32:19.614Z,66.28
2022-10-01T06:37:21.092Z,66.90
2022-10-01T06:42:22.609Z,65.96
2022-10-01T06:47:24.119Z,65.47
2022-10-01T06:52:43.873Z,66.33
2022-10-01T06:57:45.673Z,66.18
2022-10-01T07:02:47.196Z,66.43
2022-10-01T07:07:49.070Z,65.35
2022-10-01T07:12:50.765Z,65.67
2022-10-01T07:17:52.370Z,65.52
2022-10-01T07:22:57.575Z,65.16
2022-10-01T07:28:00.777Z,64.67
2022-10-01T07:33:02.275Z,65.69
2022-10-01T07:38:07.344Z,65.38
2022-10-01T07:43:08.883Z,66.71
2022-10-01T07:48:10.365Z,66.56
2022-10-01T07:53:11.922Z,66.44
2022-10-01T07:58:13.431Z,66.78
2022-10-01T08:03:14.909Z,63.34
2022-10-01T08:08:16.385Z,61.53
2022-10-01T08:13:17.947Z,59.41
2022-10-01T08:18:20.191Z,59.15
2022-10-01T08:23:21.667Z,58.38
2022-10-01T08:28:23.194Z,57.20
2022-10-01T08:33:24.771Z,55.91
2022-10-01T08:38:26.234Z,56.34
2022-10-01T08:43:33.004Z,55.87
2022-10-01T08:48:58.610Z,55.82
2022-10-01T08:54:24.241Z,53.69
2022-10-01T08:59:48.726Z,55.44
2022-10-01T09:05:04.535Z,54.72
2022-10-01T09:10:43.420Z,54.84
2022-10-01T09:15:57.804Z,53.49
2022-10-01T09:20:59.277Z,54.40
2022-10-01T09:26:00.748Z,52.40
2022-10-01T09:31:37.407Z,52.43
2022-10-01T09:37:06.755Z,51.96
2022-10-01T09:42:08.280Z,53.05
2022-10-01T09:47:20.201Z,51.74
2022-10-01T09:52:48.716Z,52.13
2022-10-01T09:57:56.288Z,52.32
2022-10-01T10:02:57.919Z,51.59
2022-10-01T10:08:00.300Z,51.45
2022-10-01T10:13:02.160Z,51.07
2022-10-01T10:18:06.809Z,51.16
2022-10-01T10:23:11.731Z,50.04
2022-10-01T10:28:23.620Z,50.24
2022-10-01T10:33:26.287Z,50.00
2022-10-01T10:38:30.630Z,50.40
2022-10-01T10:43:36.413Z,49.08
2022-10-01T10:48:43.418Z,48.14
2022-10-01T10:53:45.609Z,48.15
2022-10-01T10:58:47.100Z,49.25
2022-10-01T11:03:50.154Z,54.41
2022-10-01T11:08:59.803Z,54.88
2022-10-01T11:14:24.002Z,55.57
2022-10-01T11:19:44.038Z,58.98
2022-10-01T11:25:18.359Z,56.17
2022-10-01T11:30:24.922Z,52.97
2022-10-01T11:35:34.332Z,54.78
2022-10-01T11:40:39.402Z,54.32
2022-10-01T11:45:43.574Z,52.47
2022-10-01T11:50:46.843Z,52.19
2022-10-01T11:56:15.320Z,49.73
2022-10-01T12:01:38.381Z,50.43
2022-10-01T12:06:50.587Z,50.14
2022-10-01T12:12:02.429Z,50.72
2022-10-01T12:17:19.501Z,51.58
2022-10-01T12:22:25.797Z,51.18
2022-10-01T12:27:42.071Z,49.09
2022-10-01T12:33:04.898Z,52.02
2022-10-01T12:38:09.173Z,52.75
2022-10-01T12:43:25.120Z,52.23
2022-10-01T12:48:32.736Z,52.96
2022-10-01T12:53:48.764Z,50.81
2022-10-01T12:58:54.948Z,50.70
2022-10-01T13:04:19.458Z,52.05
2022-10-01T13:09:33.645Z,51.04
2022-10-01T13:14:35.130Z,51.21
2022-10-01T13:19:42.521Z,51.17
2022-10-01T13:25:02.348Z,50.36
2022-10-01T13:30:16.206Z,49.58
2022-10-01T13:35:39.381Z,50.72
2022-10-01T13:40:40.891Z,51.99
2022-10-01T13:45:43.831Z,50.42
2022-10-01T13:50:57.122Z,51.28
2022-10-01T13:55:58.793Z,52.35
2022-10-01T14:01:03.352Z,52.37
2022-10-01T14:06:14.485Z,52.20
2022-10-01T14:11:36.821Z,51.87
2022-10-01T14:16:44.306Z,49.37
2022-10-01T14:22:03.047Z,50.46
2022-10-01T14:27:22.463Z,51.44
2022-10-01T14:33:05.143Z,50.64
2022-10-01T14:38:19.121Z,49.47
2022-10-01T14:43:24.902Z,50.62
2022-10-01T14:48:28.745Z,50.32
2022-10-01T14:53:32.762Z,50.59
2022-10-01T14:58:36.987Z,48.44
2022-10-01T15:03:39.237Z,48.98
2022-10-01T15:08:44.316Z,48.62
2022-10-01T15:13:46.577Z,47.34
2022-10-01T15:18:48.810Z,47.70
2022-10-01T15:23:50.275Z,48.57
2022-10-01T15:29:03.353Z,48.66
2022-10-01T15:34:05.271Z,48.82
2022-10-01T15:39:40.935Z,50.14
2022-10-01T15:44:46.392Z,49.30
2022-10-01T15:50:20.767Z,47.92
2022-10-01T15:55:28.279Z,49.67
2022-10-01T16:00:32.045Z,52.49
2022-10-01T16:05:44.530Z,51.74
2022-10-01T16:10:46.018Z,51.84
2022-10-01T16:16:07.903Z,48.97
2022-10-01T16:21:10.496Z,49.52
2022-10-01T16:26:27.185Z,53.03
2022-10-01T16:31:29.432Z,53.01
2022-10-01T16:36:31.028Z,50.05
2022-10-01T16:41:33.776Z,50.76
2022-10-01T16:46:35.550Z,50.10
2022-10-01T16:51:37.335Z,50.78
2022-10-01T16:56:41.246Z,50.80
2022-10-01T17:01:43.380Z,51.04
2022-10-01T17:06:44.932Z,49.69
2022-10-01T17:11:46.396Z,50.64
2022-10-01T17:16:48.341Z,50.62
2022-10-01T17:21:49.917Z,51.97
2022-10-01T17:26:51.448Z,51.76
2022-10-01T17:31:53.287Z,50.61
2022-10-01T17:36:54.950Z,51.02
2022-10-01T17:41:56.414Z,51.85
2022-10-01T17:46:57.907Z,52.64
2022-10-01T17:51:59.387Z,52.58
2022-10-01T17:57:00.885Z,52.94
2022-10-01T18:02:13.935Z,52.56
2022-10-01T18:07:24.438Z,53.53
2022-10-01T18:12:25.961Z,55.12
2022-10-01T18:17:27.475Z,53.75
2022-10-01T18:22:28.987Z,54.28
2022-10-01T18:27:30.616Z,54.13
2022-10-01T18:32:36.284Z,52.67
2022-10-01T18:37:53.182Z,52.55
2022-10-01T18:43:17.781Z,52.51
2022-10-01T18:48:49.952Z,54.08
2022-10-01T18:54:23.502Z,52.55
2022-10-01T18:59:29.812Z,54.58
2022-10-01T19:04:47.326Z,55.12
2022-10-01T19:09:57.450Z,55.43
2022-10-01T19:15:19.823Z,55.88
2022-10-01T19:20:46.087Z,54.63
2022-10-01T19:26:04.155Z,55.67
2022-10-01T19:31:35.422Z,55.92
2022-10-01T19:36:39.020Z,56.14
2022-10-01T19:41:44.333Z,55.24
2022-10-01T19:46:47.173Z,55.19
2022-10-01T19:51:57.312Z,53.66
2022-10-01T19:57:25.690Z,53.53
2022-10-01T20:02:45.732Z,54.13
2022-10-01T20:07:52.949Z,54.15
2022-10-01T20:13:09.304Z,53.86
2022-10-01T20:18:27.731Z,53.81
2022-10-01T20:23:44.533Z,51.98
2022-10-01T20:29:09.868Z,52.15
2022-10-01T20:34:37.138Z,53.89
2022-10-01T20:39:50.330Z,51.25
2022-10-01T20:44:52.193Z,52.69
2022-10-01T20:50:00.896Z,52.76
2022-10-01T20:55:08.258Z,53.67
2022-10-01T21:00:26.771Z,54.42
2022-10-01T21:05:30.094Z,55.40
2022-10-01T21:10:46.495Z,56.33
2022-10-01T21:16:14.158Z,56.98
2022-10-01T21:21:18.327Z,57.82
2022-10-01T21:26:22.640Z,60.26
2022-10-01T21:31:33.322Z,59.70
2022-10-01T21:36:38.780Z,58.70
2022-10-01T21:41:53.643Z,59.02
2022-10-01T21:47:14.562Z,59.88
2022-10-01T21:52:34.537Z,58.21
2022-10-01T21:58:01.590Z,60.51
2022-10-01T22:03:20.280Z,59.87
2022-10-01T22:08:24.706Z,59.22
2022-10-01T22:13:29.129Z,57.37
2022-10-01T22:18:43.378Z,57.16
2022-10-01T22:23:50.093Z,56.65
2022-10-01T22:28:52.974Z,57.55
2022-10-01T22:33:57.352Z,58.54
2022-10-01T22:39:07.900Z,57.86
2022-10-01T22:44:16.620Z,57.58
2022-10-01T22:49:45.234Z,59.34
2022-10-01T22:55:10.822Z,61.09
2022-10-01T23:00:13.280Z,61.86
2022-10-01T23:05:26.919Z,61.57
2022-10-01T23:10:34.270Z,60.86
2022-10-01T23:15:41.602Z,61.07
2022-10-01T23:21:06.387Z,60.22
2022-10-01T23:26:32.588Z,57.95
2022-10-01T23:32:02.786Z,60.41
2022-10-01T23:37:30.606Z,60.16
2022-10-01T23:42:35.827Z,60.89
2022-10-01T23:47:43.843Z,59.89
2022-10-01T23:52:58.077Z,59.62
2022-10-01T23:58:03.162Z,59.25
